sensor_id;sensor_type;location;lat;lon;timestamp;pressure;altitude;pressure_sealevel;temperature
79488;BMP180;68949;53.176;18.088;2024-02-14T05:39:54;100598.00;;;
79488;BMP180;68949;53.176;18.088;2024-02-14T05:42:21;100598.00;;;
79488;BMP180;68949;53.176;18.088;2024-02-14T05:44:48;100599.60;;;
79488;BMP180;68949;53.176;18.088;2024-02-14T05:47:15;100604.20;;;
79488;BMP180;68949;53.176;18.088;2024-02-14T05:49:43;100602.20;;;
79488;BMP180;68949;53.176;18.088;2024-02-14T05:52:10;100604.40;;;
79488;BMP180;68949;53.176;18.088;2024-02-14T05:54:36;100609.80;;;
79488;BMP180;68949;53.176;18.088;2024-02-14T05:57:03;100610.00;;;
79488;BMP180;68949;53.176;18.088;2024-02-14T05:59:30;100610.20;;;
79488;BMP180;68949;53.176;18.088;2024-02-14T06:01:58;100611.40;;;
79488;BMP180;68949;53.176;18.088;2024-02-14T06:04:25;100614.20;;;
79488;BMP180;68949;53.176;18.088;2024-02-14T06:06:52;100611.00;;;
79488;BMP180;68949;53.176;18.088;2024-02-14T06:09:18;100615.80;;;
79488;BMP180;68949;53.176;18.088;2024-02-14T06:11:45;100615.00;;;
79488;BMP180;68949;53.176;18.088;2024-02-14T06:14:12;100615.80;;;
79488;BMP180;68949;53.176;18.088;2024-02-14T06:16:39;100619.20;;;
79488;BMP180;68949;53.176;18.088;2024-02-14T06:19:06;100614.00;;;
79488;BMP180;68949;53.176;18.088;2024-02-14T06:21:33;100612.00;;;
79488;BMP180;68949;53.176;18.088;2024-02-14T06:24:01;100619.40;;;
79488;BMP180;68949;53.176;18.088;2024-02-14T06:26:28;100620.20;;;
79488;BMP180;68949;53.176;18.088;2024-02-14T06:28:54;100620.00;;;
79488;BMP180;68949;53.176;18.088;2024-02-14T06:31:22;100623.40;;;
79488;BMP180;68949;53.176;18.088;2024-02-14T06:33:49;100622.40;;;
79488;BMP180;68949;53.176;18.088;2024-02-14T06:36:15;100624.80;;;
79488;BMP180;68949;53.176;18.088;2024-02-14T06:38:42;100623.60;;;
79488;BMP180;68949;53.176;18.088;2024-02-14T06:41:09;100619.20;;;
79488;BMP180;68949;53.176;18.088;2024-02-14T06:43:36;100626.00;;;
79488;BMP180;68949;53.176;18.088;2024-02-14T06:46:05;100631.00;;;
79488;BMP180;68949;53.176;18.088;2024-02-14T06:48:32;100636.60;;;
79488;BMP180;68949;53.176;18.088;2024-02-14T06:50:59;100636.80;;;
79488;BMP180;68949;53.176;18.088;2024-02-14T06:53:26;100633.40;;;
79488;BMP180;68949;53.176;18.088;2024-02-14T06:55:53;100634.20;;;
79488;BMP180;68949;53.176;18.088;2024-02-14T06:58:19;100630.80;;;
79488;BMP180;68949;53.176;18.088;2024-02-14T07:00:46;100639.20;;;
79488;BMP180;68949;53.176;18.088;2024-02-14T07:03:13;100642.40;;;
79488;BMP180;68949;53.176;18.088;2024-02-14T07:05:40;100644.80;;;
79488;BMP180;68949;53.176;18.088;2024-02-14T07:08:08;100642.80;;;
79488;BMP180;68949;53.176;18.088;2024-02-14T07:10:34;100640.00;;;
79488;BMP180;68949;53.176;18.088;2024-02-14T07:13:01;100641.40;;;
79488;BMP180;68949;53.176;18.088;2024-02-14T07:15:29;100641.60;;;
79488;BMP180;68949;53.176;18.088;2024-02-14T07:17:56;100641.00;;;
79488;BMP180;68949;53.176;18.088;2024-02-14T07:20:24;100638.40;;;
79488;BMP180;68949;53.176;18.088;2024-02-14T07:22:54;100639.20;;;
79488;BMP180;68949;53.176;18.088;2024-02-14T07:25:23;100637.40;;;
79488;BMP180;68949;53.176;18.088;2024-02-14T07:27:49;100636.00;;;
79488;BMP180;68949;53.176;18.088;2024-02-14T07:30:16;100635.20;;;
79488;BMP180;68949;53.176;18.088;2024-02-14T07:32:46;100640.20;;;
79488;BMP180;68949;53.176;18.088;2024-02-14T07:35:13;100638.60;;;
79488;BMP180;68949;53.176;18.088;2024-02-14T07:37:40;100643.80;;;
79488;BMP180;68949;53.176;18.088;2024-02-14T07:40:10;100639.60;;;
79488;BMP180;68949;53.176;18.088;2024-02-14T07:42:37;100639.00;;;
79488;BMP180;68949;53.176;18.088;2024-02-14T07:45:04;100638.60;;;
79488;BMP180;68949;53.176;18.088;2024-02-14T07:47:31;100636.60;;;
79488;BMP180;68949;53.176;18.088;2024-02-14T07:49:58;100634.80;;;
79488;BMP180;68949;53.176;18.088;2024-02-14T07:52:24;100632.00;;;
79488;BMP180;68949;53.176;18.088;2024-02-14T07:54:53;100633.00;;;
79488;BMP180;68949;53.176;18.088;2024-02-14T07:57:22;100627.80;;;
79488;BMP180;68949;53.176;18.088;2024-02-14T07:59:51;100627.00;;;
79488;BMP180;68949;53.176;18.088;2024-02-14T08:02:19;100625.00;;;
79488;BMP180;68949;53.176;18.088;2024-02-14T08:04:46;100623.20;;;
79488;BMP180;68949;53.176;18.088;2024-02-14T08:07:13;100619.00;;;
79488;BMP180;68949;53.176;18.088;2024-02-14T08:09:39;100628.00;;;
79488;BMP180;68949;53.176;18.088;2024-02-14T08:12:06;100627.20;;;
79488;BMP180;68949;53.176;18.088;2024-02-14T08:14:33;100627.40;;;
79488;BMP180;68949;53.176;18.088;2024-02-14T08:17:00;100626.40;;;
79488;BMP180;68949;53.176;18.088;2024-02-14T08:19:27;100618.60;;;
79488;BMP180;68949;53.176;18.088;2024-02-14T08:21:53;100623.80;;;
79488;BMP180;68949;53.176;18.088;2024-02-14T08:24:27;100626.80;;;
79488;BMP180;68949;53.176;18.088;2024-02-14T08:26:54;100635.00;;;
79488;BMP180;68949;53.176;18.088;2024-02-14T08:29:21;100632.00;;;
79488;BMP180;68949;53.176;18.088;2024-02-14T08:31:49;100631.80;;;
79488;BMP180;68949;53.176;18.088;2024-02-14T08:34:16;100626.80;;;
79488;BMP180;68949;53.176;18.088;2024-02-14T08:36:43;100626.00;;;
79488;BMP180;68949;53.176;18.088;2024-02-14T08:39:10;100629.60;;;
79488;BMP180;68949;53.176;18.088;2024-02-14T08:41:38;100633.40;;;
79488;BMP180;68949;53.176;18.088;2024-02-14T08:44:05;100633.60;;;
79488;BMP180;68949;53.176;18.088;2024-02-14T08:46:32;100636.00;;;
79488;BMP180;68949;53.176;18.088;2024-02-14T08:49:02;100633.80;;;
79488;BMP180;68949;53.176;18.088;2024-02-14T08:51:31;100631.00;;;
79488;BMP180;68949;53.176;18.088;2024-02-14T08:53:58;100634.40;;;
79488;BMP180;68949;53.176;18.088;2024-02-14T08:56:26;100637.20;;;
79488;BMP180;68949;53.176;18.088;2024-02-14T08:58:52;100645.20;;;
79488;BMP180;68949;53.176;18.088;2024-02-14T09:01:19;100644.80;;;
79488;BMP180;68949;53.176;18.088;2024-02-14T09:03:48;100643.00;;;
79488;BMP180;68949;53.176;18.088;2024-02-14T09:06:16;100646.40;;;
79488;BMP180;68949;53.176;18.088;2024-02-14T09:08:44;100642.60;;;
79488;BMP180;68949;53.176;18.088;2024-02-14T09:11:11;100638.00;;;
79488;BMP180;68949;53.176;18.088;2024-02-14T09:13:39;100636.60;;;
79488;BMP180;68949;53.176;18.088;2024-02-14T09:16:10;100638.80;;;
79488;BMP180;68949;53.176;18.088;2024-02-14T09:18:37;100632.80;;;
79488;BMP180;68949;53.176;18.088;2024-02-14T09:21:04;100636.80;;;
79488;BMP180;68949;53.176;18.088;2024-02-14T09:23:31;100640.00;;;
79488;BMP180;68949;53.176;18.088;2024-02-14T09:25:58;100641.20;;;
79488;BMP180;68949;53.176;18.088;2024-02-14T09:28:25;100648.00;;;
79488;BMP180;68949;53.176;18.088;2024-02-14T09:30:52;100647.80;;;
79488;BMP180;68949;53.176;18.088;2024-02-14T09:33:19;100650.60;;;
79488;BMP180;68949;53.176;18.088;2024-02-14T09:35:46;100653.40;;;
79488;BMP180;68949;53.176;18.088;2024-02-14T09:38:14;100651.20;;;
79488;BMP180;68949;53.176;18.088;2024-02-14T09:40:41;100652.40;;;
79488;BMP180;68949;53.176;18.088;2024-02-14T09:45:50;100643.00;;;
79488;BMP180;68949;53.176;18.088;2024-02-14T09:48:19;100640.20;;;
79488;BMP180;68949;53.176;18.088;2024-02-14T09:50:49;100635.00;;;
79488;BMP180;68949;53.176;18.088;2024-02-14T09:53:17;100638.20;;;
79488;BMP180;68949;53.176;18.088;2024-02-14T09:55:46;100636.40;;;
79488;BMP180;68949;53.176;18.088;2024-02-14T09:58:13;100627.40;;;
79488;BMP180;68949;53.176;18.088;2024-02-14T10:00:40;100628.20;;;
79488;BMP180;68949;53.176;18.088;2024-02-14T10:03:08;100628.00;;;
79488;BMP180;68949;53.176;18.088;2024-02-14T10:05:35;100626.80;;;
79488;BMP180;68949;53.176;18.088;2024-02-14T10:08:03;100616.60;;;
79488;BMP180;68949;53.176;18.088;2024-02-14T10:10:32;100621.40;;;
79488;BMP180;68949;53.176;18.088;2024-02-14T10:13:04;100622.80;;;
79488;BMP180;68949;53.176;18.088;2024-02-14T10:15:33;100620.20;;;
79488;BMP180;68949;53.176;18.088;2024-02-14T10:18:00;100614.20;;;
79488;BMP180;68949;53.176;18.088;2024-02-14T10:20:27;100612.80;;;
79488;BMP180;68949;53.176;18.088;2024-02-14T10:23:03;100605.00;;;
79488;BMP180;68949;53.176;18.088;2024-02-14T10:25:31;100583.00;;;
79488;BMP180;68949;53.176;18.088;2024-02-14T10:28:04;100580.80;;;
79488;BMP180;68949;53.176;18.088;2024-02-14T10:30:38;100574.80;;;
79488;BMP180;68949;53.176;18.088;2024-02-14T10:33:07;100572.20;;;
79488;BMP180;68949;53.176;18.088;2024-02-14T10:35:35;100570.00;;;
79488;BMP180;68949;53.176;18.088;2024-02-14T10:38:04;100571.60;;;
79488;BMP180;68949;53.176;18.088;2024-02-14T10:40:32;100567.20;;;
79488;BMP180;68949;53.176;18.088;2024-02-14T10:43:02;100569.40;;;
79488;BMP180;68949;53.176;18.088;2024-02-14T10:45:29;100562.00;;;
79488;BMP180;68949;53.176;18.088;2024-02-14T10:47:57;100556.60;;;
79488;BMP180;68949;53.176;18.088;2024-02-14T10:50:28;100561.20;;;
79488;BMP180;68949;53.176;18.088;2024-02-14T10:53:00;100564.60;;;
79488;BMP180;68949;53.176;18.088;2024-02-14T10:55:30;100559.60;;;
79488;BMP180;68949;53.176;18.088;2024-02-14T10:57:58;100545.40;;;
79488;BMP180;68949;53.176;18.088;2024-02-14T11:00:26;100546.60;;;
79488;BMP180;68949;53.176;18.088;2024-02-14T11:02:53;100534.80;;;
79488;BMP180;68949;53.176;18.088;2024-02-14T11:05:20;100536.60;;;
79488;BMP180;68949;53.176;18.088;2024-02-14T11:07:52;100534.00;;;
79488;BMP180;68949;53.176;18.088;2024-02-14T11:10:22;100525.00;;;
79488;BMP180;68949;53.176;18.088;2024-02-14T11:12:50;100533.60;;;
79488;BMP180;68949;53.176;18.088;2024-02-14T11:15:20;100525.20;;;
79488;BMP180;68949;53.176;18.088;2024-02-14T11:17:48;100529.40;;;
79488;BMP180;68949;53.176;18.088;2024-02-14T11:20:32;100531.80;;;
79488;BMP180;68949;53.176;18.088;2024-02-14T11:23:04;100535.20;;;
79488;BMP180;68949;53.176;18.088;2024-02-14T11:25:33;100521.40;;;
79488;BMP180;68949;53.176;18.088;2024-02-14T11:28:17;100511.60;;;
79488;BMP180;68949;53.176;18.088;2024-02-14T11:30:46;100512.60;;;
79488;BMP180;68949;53.176;18.088;2024-02-14T11:33:18;100506.40;;;
79488;BMP180;68949;53.176;18.088;2024-02-14T11:35:51;100498.60;;;
79488;BMP180;68949;53.176;18.088;2024-02-14T11:38:21;100509.80;;;
79488;BMP180;68949;53.176;18.088;2024-02-14T11:40:48;100510.40;;;
79488;BMP180;68949;53.176;18.088;2024-02-14T11:43:18;100502.80;;;
79488;BMP180;68949;53.176;18.088;2024-02-14T11:45:46;100495.20;;;
79488;BMP180;68949;53.176;18.088;2024-02-14T11:48:19;100490.20;;;
79488;BMP180;68949;53.176;18.088;2024-02-14T11:50:47;100483.40;;;
79488;BMP180;68949;53.176;18.088;2024-02-14T11:53:15;100471.20;;;
79488;BMP180;68949;53.176;18.088;2024-02-14T11:55:46;100474.60;;;
79488;BMP180;68949;53.176;18.088;2024-02-14T11:58:17;100472.60;;;
79488;BMP180;68949;53.176;18.088;2024-02-14T12:00:46;100473.20;;;
79488;BMP180;68949;53.176;18.088;2024-02-14T12:03:23;100468.20;;;
79488;BMP180;68949;53.176;18.088;2024-02-14T12:05:53;100463.40;;;
79488;BMP180;68949;53.176;18.088;2024-02-14T12:08:21;100477.20;;;
79488;BMP180;68949;53.176;18.088;2024-02-14T12:10:48;100477.40;;;
79488;BMP180;68949;53.176;18.088;2024-02-14T12:13:19;100446.40;;;
79488;BMP180;68949;53.176;18.088;2024-02-14T12:15:51;100460.00;;;
79488;BMP180;68949;53.176;18.088;2024-02-14T12:18:20;100462.00;;;
79488;BMP180;68949;53.176;18.088;2024-02-14T12:20:47;100470.40;;;
79488;BMP180;68949;53.176;18.088;2024-02-14T12:23:18;100454.20;;;
79488;BMP180;68949;53.176;18.088;2024-02-14T12:25:46;100465.00;;;
79488;BMP180;68949;53.176;18.088;2024-02-14T12:28:17;100458.00;;;
79488;BMP180;68949;53.176;18.088;2024-02-14T12:30:47;100450.80;;;
79488;BMP180;68949;53.176;18.088;2024-02-14T12:33:16;100460.00;;;
79488;BMP180;68949;53.176;18.088;2024-02-14T12:35:48;100427.60;;;
79488;BMP180;68949;53.176;18.088;2024-02-14T12:38:18;100423.40;;;
79488;BMP180;68949;53.176;18.088;2024-02-14T12:40:45;100422.20;;;
79488;BMP180;68949;53.176;18.088;2024-02-14T12:43:14;100447.40;;;
79488;BMP180;68949;53.176;18.088;2024-02-14T12:45:43;100459.00;;;
79488;BMP180;68949;53.176;18.088;2024-02-14T12:48:12;100452.20;;;
79488;BMP180;68949;53.176;18.088;2024-02-14T12:50:40;100453.00;;;
79488;BMP180;68949;53.176;18.088;2024-02-14T12:53:14;100446.20;;;
79488;BMP180;68949;53.176;18.088;2024-02-14T12:55:40;100435.20;;;
79488;BMP180;68949;53.176;18.088;2024-02-14T12:58:07;100431.20;;;
79488;BMP180;68949;53.176;18.088;2024-02-14T13:00:34;100429.80;;;
79488;BMP180;68949;53.176;18.088;2024-02-14T13:03:01;100436.20;;;
79488;BMP180;68949;53.176;18.088;2024-02-14T13:05:28;100446.40;;;
79488;BMP180;68949;53.176;18.088;2024-02-14T13:07:54;100453.20;;;
79488;BMP180;68949;53.176;18.088;2024-02-14T13:10:21;100441.40;;;
79488;BMP180;68949;53.176;18.088;2024-02-14T13:12:48;100435.00;;;
79488;BMP180;68949;53.176;18.088;2024-02-14T13:15:16;100434.20;;;
79488;BMP180;68949;53.176;18.088;2024-02-14T13:17:43;100436.60;;;
79488;BMP180;68949;53.176;18.088;2024-02-14T13:20:10;100437.00;;;
79488;BMP180;68949;53.176;18.088;2024-02-14T13:22:37;100434.00;;;
79488;BMP180;68949;53.176;18.088;2024-02-14T13:25:04;100429.20;;;
79488;BMP180;68949;53.176;18.088;2024-02-14T13:27:31;100418.40;;;
79488;BMP180;68949;53.176;18.088;2024-02-14T13:29:58;100411.40;;;
79488;BMP180;68949;53.176;18.088;2024-02-14T13:32:25;100412.40;;;
79488;BMP180;68949;53.176;18.088;2024-02-14T13:34:51;100412.60;;;
79488;BMP180;68949;53.176;18.088;2024-02-14T13:37:18;100424.20;;;
79488;BMP180;68949;53.176;18.088;2024-02-14T13:39:46;100427.20;;;
79488;BMP180;68949;53.176;18.088;2024-02-14T13:42:12;100428.00;;;
79488;BMP180;68949;53.176;18.088;2024-02-14T13:44:39;100428.60;;;
79488;BMP180;68949;53.176;18.088;2024-02-14T13:47:06;100420.40;;;
79488;BMP180;68949;53.176;18.088;2024-02-14T13:49:33;100430.00;;;
79488;BMP180;68949;53.176;18.088;2024-02-14T13:52:00;100432.40;;;
79488;BMP180;68949;53.176;18.088;2024-02-14T13:54:27;100433.80;;;
79488;BMP180;68949;53.176;18.088;2024-02-14T13:56:53;100439.00;;;
79488;BMP180;68949;53.176;18.088;2024-02-14T13:59:21;100448.60;;;
79488;BMP180;68949;53.176;18.088;2024-02-14T14:01:48;100444.60;;;
79488;BMP180;68949;53.176;18.088;2024-02-14T14:04:15;100443.20;;;
79488;BMP180;68949;53.176;18.088;2024-02-14T14:06:42;100457.60;;;
79488;BMP180;68949;53.176;18.088;2024-02-14T14:09:10;100465.20;;;
79488;BMP180;68949;53.176;18.088;2024-02-14T14:11:37;100465.80;;;
79488;BMP180;68949;53.176;18.088;2024-02-14T14:14:06;100466.20;;;
79488;BMP180;68949;53.176;18.088;2024-02-14T14:16:34;100473.40;;;
79488;BMP180;68949;53.176;18.088;2024-02-14T14:19:01;100482.40;;;
79488;BMP180;68949;53.176;18.088;2024-02-14T14:21:28;100480.00;;;
79488;BMP180;68949;53.176;18.088;2024-02-14T14:23:55;100489.40;;;
79488;BMP180;68949;53.176;18.088;2024-02-14T14:26:22;100492.80;;;
79488;BMP180;68949;53.176;18.088;2024-02-14T14:28:48;100491.60;;;
79488;BMP180;68949;53.176;18.088;2024-02-14T14:31:15;100492.60;;;
79488;BMP180;68949;53.176;18.088;2024-02-14T14:33:42;100497.60;;;
79488;BMP180;68949;53.176;18.088;2024-02-14T14:36:09;100500.20;;;
79488;BMP180;68949;53.176;18.088;2024-02-14T14:38:36;100499.80;;;
79488;BMP180;68949;53.176;18.088;2024-02-14T14:41:02;100501.80;;;
79488;BMP180;68949;53.176;18.088;2024-02-14T14:43:29;100508.80;;;
79488;BMP180;68949;53.176;18.088;2024-02-14T14:45:56;100516.60;;;
79488;BMP180;68949;53.176;18.088;2024-02-14T14:48:23;100518.20;;;
79488;BMP180;68949;53.176;18.088;2024-02-14T14:50:50;100524.40;;;
79488;BMP180;68949;53.176;18.088;2024-02-14T14:53:17;100520.80;;;
79488;BMP180;68949;53.176;18.088;2024-02-14T14:55:55;100521.40;;;
79488;BMP180;68949;53.176;18.088;2024-02-14T14:58:24;100527.60;;;
79488;BMP180;68949;53.176;18.088;2024-02-14T15:00:54;100531.40;;;
79488;BMP180;68949;53.176;18.088;2024-02-14T15:03:27;100534.40;;;
79488;BMP180;68949;53.176;18.088;2024-02-14T15:05:54;100537.80;;;
79488;BMP180;68949;53.176;18.088;2024-02-14T15:08:21;100531.80;;;
79488;BMP180;68949;53.176;18.088;2024-02-14T15:10:52;100539.20;;;
79488;BMP180;68949;53.176;18.088;2024-02-14T15:13:19;100539.80;;;
79488;BMP180;68949;53.176;18.088;2024-02-14T15:15:46;100532.80;;;
79488;BMP180;68949;53.176;18.088;2024-02-14T15:18:13;100543.60;;;
79488;BMP180;68949;53.176;18.088;2024-02-14T15:20:40;100541.60;;;
79488;BMP180;68949;53.176;18.088;2024-02-14T15:23:07;100545.40;;;
79488;BMP180;68949;53.176;18.088;2024-02-14T15:25:34;100550.80;;;
79488;BMP180;68949;53.176;18.088;2024-02-14T15:28:09;100558.20;;;
79488;BMP180;68949;53.176;18.088;2024-02-14T15:30:49;100561.00;;;
79488;BMP180;68949;53.176;18.088;2024-02-14T15:33:34;100562.80;;;
79488;BMP180;68949;53.176;18.088;2024-02-14T15:36:00;100569.00;;;
79488;BMP180;68949;53.176;18.088;2024-02-14T15:38:27;100573.20;;;
79488;BMP180;68949;53.176;18.088;2024-02-14T15:40:55;100572.60;;;
79488;BMP180;68949;53.176;18.088;2024-02-14T15:43:27;100570.60;;;
79488;BMP180;68949;53.176;18.088;2024-02-14T15:45:55;100581.00;;;
79488;BMP180;68949;53.176;18.088;2024-02-14T15:48:23;100579.60;;;
79488;BMP180;68949;53.176;18.088;2024-02-14T15:50:51;100586.20;;;
79488;BMP180;68949;53.176;18.088;2024-02-14T15:53:17;100590.60;;;
79488;BMP180;68949;53.176;18.088;2024-02-14T15:55:45;100592.80;;;
79488;BMP180;68949;53.176;18.088;2024-02-14T15:58:15;100594.20;;;
79488;BMP180;68949;53.176;18.088;2024-02-14T16:00:41;100595.40;;;
79488;BMP180;68949;53.176;18.088;2024-02-14T16:03:09;100600.00;;;
79488;BMP180;68949;53.176;18.088;2024-02-14T16:05:39;100593.80;;;
79488;BMP180;68949;53.176;18.088;2024-02-14T16:08:06;100594.80;;;
79488;BMP180;68949;53.176;18.088;2024-02-14T16:10:33;100596.80;;;
79488;BMP180;68949;53.176;18.088;2024-02-14T16:13:00;100600.60;;;
79488;BMP180;68949;53.176;18.088;2024-02-14T16:15:27;100596.40;;;
79488;BMP180;68949;53.176;18.088;2024-02-14T16:17:55;100596.60;;;
79488;BMP180;68949;53.176;18.088;2024-02-14T16:20:22;100592.20;;;
79488;BMP180;68949;53.176;18.088;2024-02-14T16:22:49;100588.60;;;
79488;BMP180;68949;53.176;18.088;2024-02-14T16:25:17;100585.20;;;
79488;BMP180;68949;53.176;18.088;2024-02-14T16:27:43;100587.60;;;
79488;BMP180;68949;53.176;18.088;2024-02-14T16:30:12;100593.60;;;
79488;BMP180;68949;53.176;18.088;2024-02-14T16:32:41;100591.20;;;
79488;BMP180;68949;53.176;18.088;2024-02-14T16:35:08;100589.80;;;
79488;BMP180;68949;53.176;18.088;2024-02-14T16:37:35;100587.60;;;
79488;BMP180;68949;53.176;18.088;2024-02-14T16:40:02;100590.40;;;
79488;BMP180;68949;53.176;18.088;2024-02-14T16:42:29;100591.80;;;
79488;BMP180;68949;53.176;18.088;2024-02-14T16:44:55;100585.80;;;
79488;BMP180;68949;53.176;18.088;2024-02-14T16:47:22;100586.40;;;
79488;BMP180;68949;53.176;18.088;2024-02-14T16:49:49;100583.40;;;
79488;BMP180;68949;53.176;18.088;2024-02-14T16:52:15;100589.60;;;
79488;BMP180;68949;53.176;18.088;2024-02-14T16:54:42;100591.40;;;
79488;BMP180;68949;53.176;18.088;2024-02-14T16:57:10;100597.40;;;
79488;BMP180;68949;53.176;18.088;2024-02-14T16:59:39;100598.20;;;
79488;BMP180;68949;53.176;18.088;2024-02-14T17:02:08;100591.80;;;
79488;BMP180;68949;53.176;18.088;2024-02-14T17:04:35;100590.20;;;
79488;BMP180;68949;53.176;18.088;2024-02-14T17:07:03;100592.40;;;
79488;BMP180;68949;53.176;18.088;2024-02-14T17:09:31;100597.40;;;
79488;BMP180;68949;53.176;18.088;2024-02-14T17:11:57;100603.00;;;
79488;BMP180;68949;53.176;18.088;2024-02-14T17:14:25;100600.20;;;
79488;BMP180;68949;53.176;18.088;2024-02-14T17:16:52;100602.00;;;
79488;BMP180;68949;53.176;18.088;2024-02-14T17:19:24;100597.60;;;
79488;BMP180;68949;53.176;18.088;2024-02-14T17:21:51;100594.60;;;
79488;BMP180;68949;53.176;18.088;2024-02-14T17:24:18;100595.80;;;
79488;BMP180;68949;53.176;18.088;2024-02-14T17:26:45;100597.00;;;
79488;BMP180;68949;53.176;18.088;2024-02-14T17:29:12;100597.80;;;
79488;BMP180;68949;53.176;18.088;2024-02-14T17:31:40;100594.60;;;
79488;BMP180;68949;53.176;18.088;2024-02-14T17:34:07;100593.00;;;
79488;BMP180;68949;53.176;18.088;2024-02-14T17:36:35;100596.20;;;
79488;BMP180;68949;53.176;18.088;2024-02-14T17:39:02;100595.40;;;
79488;BMP180;68949;53.176;18.088;2024-02-14T17:41:32;100598.80;;;
79488;BMP180;68949;53.176;18.088;2024-02-14T17:44:01;100602.60;;;
79488;BMP180;68949;53.176;18.088;2024-02-14T17:46:29;100597.20;;;
79488;BMP180;68949;53.176;18.088;2024-02-14T17:48:57;100598.60;;;
79488;BMP180;68949;53.176;18.088;2024-02-14T17:51:25;100598.80;;;
79488;BMP180;68949;53.176;18.088;2024-02-14T17:53:55;100590.20;;;
79488;BMP180;68949;53.176;18.088;2024-02-14T17:56:22;100592.20;;;
79488;BMP180;68949;53.176;18.088;2024-02-14T17:58:48;100590.60;;;
79488;BMP180;68949;53.176;18.088;2024-02-14T18:01:15;100588.20;;;
79488;BMP180;68949;53.176;18.088;2024-02-14T18:03:43;100590.00;;;
79488;BMP180;68949;53.176;18.088;2024-02-14T18:06:10;100594.40;;;
79488;BMP180;68949;53.176;18.088;2024-02-14T18:08:37;100586.80;;;
79488;BMP180;68949;53.176;18.088;2024-02-14T18:11:04;100580.80;;;
79488;BMP180;68949;53.176;18.088;2024-02-14T18:13:31;100583.40;;;
79488;BMP180;68949;53.176;18.088;2024-02-14T18:15:58;100580.20;;;
79488;BMP180;68949;53.176;18.088;2024-02-14T18:18:25;100575.40;;;
79488;BMP180;68949;53.176;18.088;2024-02-14T18:20:53;100573.80;;;
79488;BMP180;68949;53.176;18.088;2024-02-14T18:23:19;100572.20;;;
79488;BMP180;68949;53.176;18.088;2024-02-14T18:25:46;100572.80;;;
79488;BMP180;68949;53.176;18.088;2024-02-14T18:28:13;100569.80;;;
79488;BMP180;68949;53.176;18.088;2024-02-14T18:30:39;100570.40;;;
79488;BMP180;68949;53.176;18.088;2024-02-14T18:33:06;100568.60;;;
79488;BMP180;68949;53.176;18.088;2024-02-14T18:35:40;100572.00;;;
79488;BMP180;68949;53.176;18.088;2024-02-14T18:38:07;100573.60;;;
79488;BMP180;68949;53.176;18.088;2024-02-14T18:40:38;100571.80;;;
79488;BMP180;68949;53.176;18.088;2024-02-14T18:43:05;100573.00;;;
79488;BMP180;68949;53.176;18.088;2024-02-14T18:45:32;100574.40;;;
79488;BMP180;68949;53.176;18.088;2024-02-14T18:47:59;100573.80;;;
79488;BMP180;68949;53.176;18.088;2024-02-14T18:50:26;100573.60;;;
79488;BMP180;68949;53.176;18.088;2024-02-14T18:52:53;100575.00;;;
79488;BMP180;68949;53.176;18.088;2024-02-14T18:55:20;100571.60;;;
79488;BMP180;68949;53.176;18.088;2024-02-14T18:57:49;100570.00;;;
79488;BMP180;68949;53.176;18.088;2024-02-14T19:00:16;100572.40;;;
79488;BMP180;68949;53.176;18.088;2024-02-14T19:02:43;100569.20;;;
79488;BMP180;68949;53.176;18.088;2024-02-14T19:05:10;100571.00;;;
79488;BMP180;68949;53.176;18.088;2024-02-14T19:07:38;100565.40;;;
79488;BMP180;68949;53.176;18.088;2024-02-14T19:10:05;100567.00;;;
79488;BMP180;68949;53.176;18.088;2024-02-14T19:12:32;100564.20;;;
79488;BMP180;68949;53.176;18.088;2024-02-14T19:15:01;100567.20;;;
79488;BMP180;68949;53.176;18.088;2024-02-14T19:17:35;100566.00;;;
79488;BMP180;68949;53.176;18.088;2024-02-14T19:20:03;100566.60;;;
79488;BMP180;68949;53.176;18.088;2024-02-14T19:22:35;100560.80;;;
79488;BMP180;68949;53.176;18.088;2024-02-14T19:25:02;100562.00;;;
79488;BMP180;68949;53.176;18.088;2024-02-14T19:27:29;100558.20;;;
79488;BMP180;68949;53.176;18.088;2024-02-14T19:29:56;100559.80;;;
79488;BMP180;68949;53.176;18.088;2024-02-14T19:32:23;100560.00;;;
79488;BMP180;68949;53.176;18.088;2024-02-14T19:34:50;100556.20;;;
79488;BMP180;68949;53.176;18.088;2024-02-14T19:37:17;100555.40;;;
79488;BMP180;68949;53.176;18.088;2024-02-14T19:39:44;100557.40;;;
79488;BMP180;68949;53.176;18.088;2024-02-14T19:42:10;100558.00;;;
79488;BMP180;68949;53.176;18.088;2024-02-14T19:44:37;100552.60;;;
79488;BMP180;68949;53.176;18.088;2024-02-14T19:47:04;100548.60;;;
79488;BMP180;68949;53.176;18.088;2024-02-14T19:49:31;100550.00;;;
79488;BMP180;68949;53.176;18.088;2024-02-14T19:51:58;100551.60;;;
79488;BMP180;68949;53.176;18.088;2024-02-14T19:54:25;100541.20;;;
79488;BMP180;68949;53.176;18.088;2024-02-14T19:56:52;100539.60;;;
79488;BMP180;68949;53.176;18.088;2024-02-14T19:59:20;100540.80;;;
79488;BMP180;68949;53.176;18.088;2024-02-14T20:01:48;100538.60;;;
79488;BMP180;68949;53.176;18.088;2024-02-14T20:04:18;100543.80;;;
79488;BMP180;68949;53.176;18.088;2024-02-14T20:06:45;100540.80;;;
79488;BMP180;68949;53.176;18.088;2024-02-14T20:09:12;100543.00;;;
79488;BMP180;68949;53.176;18.088;2024-02-14T20:11:40;100533.00;;;
79488;BMP180;68949;53.176;18.088;2024-02-14T20:14:10;100532.80;;;
79488;BMP180;68949;53.176;18.088;2024-02-14T20:16:36;100534.00;;;
79488;BMP180;68949;53.176;18.088;2024-02-14T20:19:03;100535.00;;;
79488;BMP180;68949;53.176;18.088;2024-02-14T20:21:30;100526.00;;;
79488;BMP180;68949;53.176;18.088;2024-02-14T20:23:58;100529.40;;;
79488;BMP180;68949;53.176;18.088;2024-02-14T20:26:33;100528.20;;;
79488;BMP180;68949;53.176;18.088;2024-02-14T20:29:00;100528.00;;;
79488;BMP180;68949;53.176;18.088;2024-02-14T20:31:27;100526.20;;;
79488;BMP180;68949;53.176;18.088;2024-02-14T20:33:57;100527.20;;;